createdAt,value
2018-09-01T00:00:17.127Z,94.07
2018-09-01T00:02:46.687Z,94.32
2018-09-01T00:05:16.156Z,94.38
2018-09-01T00:07:45.618Z,94.69
2018-09-01T00:10:15.117Z,94.04
2018-09-01T00:14:13.980Z,93.87
2018-09-01T00:16:43.530Z,93.95
2018-09-01T00:19:13.083Z,94.47
2018-09-01T00:21:42.633Z,94.24
2018-09-01T00:24:12.636Z,94.18
2018-09-01T00:26:43.464Z,94.49
2018-09-01T00:29:12.957Z,94.25
2018-09-01T00:31:42.449Z,95.00
2018-09-01T00:34:12.201Z,94.54
2018-09-01T00:36:41.612Z,95.01
2018-09-01T00:39:11.110Z,94.73
2018-09-01T00:41:40.624Z,94.84
2018-09-01T00:44:10.103Z,95.43
2018-09-01T00:46:39.583Z,95.23
2018-09-01T00:49:09.001Z,95.31
2018-09-01T00:51:38.502Z,95.79
2018-09-01T00:54:07.994Z,95.47
2018-09-01T00:56:37.502Z,95.59
2018-09-01T00:59:07.034Z,95.29
2018-09-01T01:01:36.540Z,95.62
2018-09-01T01:04:05.989Z,95.82
2018-09-01T01:06:35.386Z,95.74
2018-09-01T01:09:05.945Z,95.58
2018-09-01T01:11:35.439Z,95.70
2018-09-01T01:14:04.929Z,96.11
2018-09-01T01:16:34.426Z,95.53
2018-09-01T01:19:03.905Z,96.27
2018-09-01T01:21:33.639Z,95.05
2018-09-01T01:24:03.102Z,95.48
2018-09-01T01:26:32.544Z,95.36
2018-09-01T01:29:02.076Z,95.61
2018-09-01T01:31:31.534Z,95.43
2018-09-01T01:34:01.014Z,95.80
2018-09-01T01:36:30.525Z,95.69
2018-09-01T01:38:59.938Z,96.15
2018-09-01T01:41:29.420Z,96.27
2018-09-01T01:43:58.959Z,96.19
2018-09-01T01:46:28.439Z,97.04
2018-09-01T01:48:57.900Z,96.11
2018-09-01T01:51:27.342Z,93.82
2018-09-01T01:53:56.802Z,93.34
2018-09-01T01:56:26.289Z,93.30
2018-09-01T01:58:55.771Z,94.35
2018-09-01T02:01:25.171Z,94.75
2018-09-01T02:03:55.346Z,94.68
2018-09-01T02:06:27.149Z,93.90
2018-09-01T02:08:57.383Z,93.95
2018-09-01T02:11:26.897Z,95.25
2018-09-01T02:13:56.354Z,96.14
2018-09-01T02:16:25.908Z,96.19
2018-09-01T02:18:55.398Z,95.96
2018-09-01T02:21:24.871Z,95.39
2018-09-01T02:23:54.382Z,96.12
2018-09-01T02:26:23.866Z,95.21
2018-09-01T02:28:53.381Z,93.02
2018-09-01T02:31:22.850Z,93.84
2018-09-01T02:33:52.342Z,94.76
2018-09-01T02:36:21.778Z,94.27
2018-09-01T02:38:51.334Z,94.10
2018-09-01T02:41:20.795Z,94.61
2018-09-01T02:43:50.401Z,95.42
2018-09-01T02:46:19.808Z,95.62
2018-09-01T02:48:49.272Z,96.34
2018-09-01T02:51:18.764Z,95.56
2018-09-01T02:53:48.191Z,93.70
2018-09-01T02:56:17.619Z,96.07
2018-09-01T02:58:47.130Z,96.20
2018-09-01T03:01:21.820Z,96.94
2018-09-01T03:03:51.411Z,96.49
2018-09-01T03:06:20.853Z,97.04
2018-09-01T03:08:50.251Z,96.58
2018-09-01T03:11:19.796Z,97.42
2018-09-01T03:13:49.269Z,97.61
2018-09-01T03:16:18.707Z,97.74
2018-09-01T03:18:48.209Z,98.82
2018-09-01T03:21:17.649Z,98.46
2018-09-01T03:23:47.144Z,98.62
2018-09-01T03:26:16.647Z,98.68
2018-09-01T03:28:46.097Z,99.16
2018-09-01T03:31:15.571Z,98.92
2018-09-01T03:33:45.075Z,99.07
2018-09-01T03:36:14.543Z,98.90
2018-09-01T03:38:43.998Z,99.53
2018-09-01T03:41:13.458Z,99.56
2018-09-01T03:43:42.905Z,98.93
2018-09-01T03:46:12.340Z,99.34
2018-09-01T03:48:42.322Z,99.69
2018-09-01T03:51:11.809Z,98.88
2018-09-01T03:53:41.252Z,98.97
2018-09-01T03:56:10.732Z,99.49
2018-09-01T03:58:40.227Z,98.79
2018-09-01T04:01:09.669Z,99.18
2018-09-01T04:03:39.211Z,99.33
2018-09-01T04:06:08.661Z,99.42
2018-09-01T04:08:38.119Z,99.09
2018-09-01T04:11:07.646Z,98.62
2018-09-01T04:13:37.065Z,98.81
2018-09-01T04:16:06.514Z,98.31
2018-09-01T04:18:36.024Z,98.61
2018-09-01T04:21:05.525Z,98.87
2018-09-01T04:23:35.058Z,99.05
2018-09-01T04:26:04.529Z,98.57
2018-09-01T04:28:33.957Z,98.67
2018-09-01T04:31:03.482Z,98.79
2018-09-01T04:33:32.933Z,98.41
2018-09-01T04:36:02.467Z,98.27
2018-09-01T04:38:31.985Z,98.14
2018-09-01T04:41:01.444Z,98.23
2018-09-01T04:43:30.980Z,98.08
2018-09-01T04:46:00.430Z,98.36
2018-09-01T04:48:29.961Z,98.39
2018-09-01T04:50:59.422Z,98.80
2018-09-01T04:53:28.834Z,98.26
2018-09-01T04:55:58.303Z,98.60
2018-09-01T04:58:27.722Z,98.20
2018-09-01T05:00:57.272Z,98.43
2018-09-01T05:03:26.713Z,97.95
2018-09-01T05:05:56.177Z,98.20
2018-09-01T05:08:25.792Z,97.80
2018-09-01T05:10:55.212Z,97.60
2018-09-01T05:13:24.700Z,97.17
2018-09-01T05:15:54.112Z,97.42
2018-09-01T05:18:23.710Z,97.54
2018-09-01T05:20:53.211Z,98.43
2018-09-01T05:23:22.720Z,98.15
2018-09-01T05:25:52.192Z,97.87
2018-09-01T05:28:21.730Z,97.63
2018-09-01T05:30:51.215Z,97.57
2018-09-01T05:33:20.926Z,97.49
2018-09-01T05:35:50.392Z,97.80
2018-09-01T05:38:19.861Z,98.19
2018-09-01T05:40:49.405Z,98.07
2018-09-01T05:43:18.925Z,97.68
2018-09-01T05:45:48.486Z,98.57
2018-09-01T05:48:18.233Z,98.71
2018-09-01T05:50:47.820Z,98.31
2018-09-01T05:53:17.134Z,98.93
2018-09-01T05:55:46.663Z,98.77
2018-09-01T05:58:16.152Z,98.91
2018-09-01T06:00:49.822Z,99.68
2018-09-01T06:03:19.815Z,99.54
2018-09-01T06:05:49.457Z,99.75
2018-09-01T06:08:19.230Z,99.11
2018-09-01T06:10:49.289Z,99.41
2018-09-01T06:13:18.792Z,99.39
2018-09-01T06:15:48.963Z,98.68
2018-09-01T06:18:18.438Z,99.02
2018-09-01T06:20:48.144Z,99.56
2018-09-01T06:23:18.510Z,98.90
2018-09-01T06:25:48.265Z,99.09
2018-09-01T06:28:22.220Z,99.05
2018-09-01T06:30:53.117Z,98.34
2018-09-01T06:33:22.654Z,98.79
2018-09-01T06:35:52.202Z,98.57
2018-09-01T06:38:21.698Z,97.92
2018-09-01T06:40:51.240Z,97.97
2018-09-01T06:43:20.770Z,96.75
2018-09-01T06:45:50.229Z,96.03
2018-09-01T06:48:20.253Z,95.91
2018-09-01T06:50:50.103Z,95.13
2018-09-01T06:53:19.592Z,95.24
2018-09-01T06:55:49.136Z,96.08
2018-09-01T06:58:18.606Z,95.64
2018-09-01T07:00:48.092Z,94.46
2018-09-01T07:03:17.544Z,94.80
2018-09-01T07:05:47.041Z,94.32
2018-09-01T07:08:16.670Z,94.65
2018-09-01T07:10:46.292Z,94.21
2018-09-01T07:13:15.782Z,93.48
2018-09-01T07:15:45.374Z,93.74
2018-09-01T07:18:14.923Z,92.85
2018-09-01T07:20:44.602Z,92.79
2018-09-01T07:23:14.112Z,92.85
2018-09-01T07:25:43.595Z,92.37
2018-09-01T07:28:13.041Z,89.87
2018-09-01T07:30:42.639Z,91.08
2018-09-01T07:33:12.121Z,90.25
2018-09-01T07:35:41.698Z,89.75
2018-09-01T07:38:11.118Z,90.55
2018-09-01T07:40:40.539Z,89.29
2018-09-01T07:43:10.145Z,90.19
2018-09-01T07:45:39.549Z,89.25
2018-09-01T07:48:09.259Z,88.62
2018-09-01T07:50:38.731Z,89.68
2018-09-01T07:53:08.148Z,90.33
2018-09-01T07:55:37.606Z,92.13
2018-09-01T07:58:07.174Z,91.47
2018-09-01T08:00:36.720Z,91.95
2018-09-01T08:03:06.852Z,91.16
2018-09-01T08:05:36.421Z,91.16
2018-09-01T08:08:06.100Z,90.33
2018-09-01T08:10:35.588Z,89.73
2018-09-01T08:13:05.218Z,88.36
2018-09-01T08:15:34.848Z,87.09
2018-09-01T08:18:04.369Z,87.57
2018-09-01T08:20:34.507Z,87.17
2018-09-01T08:23:04.038Z,86.82
2018-09-01T08:25:33.640Z,88.37
2018-09-01T08:28:03.259Z,88.65
2018-09-01T08:30:32.925Z,87.05
2018-09-01T08:33:02.440Z,85.38
2018-09-01T08:35:32.059Z,85.27
2018-09-01T08:38:01.673Z,84.98
2018-09-01T08:40:31.330Z,85.62
2018-09-01T08:43:00.980Z,85.48
2018-09-01T08:45:30.461Z,86.10
2018-09-01T08:48:00.092Z,86.54
2018-09-01T08:50:29.596Z,85.19
2018-09-01T08:52:59.127Z,84.38
2018-09-01T08:55:28.725Z,85.08
2018-09-01T08:57:58.201Z,85.04
2018-09-01T09:00:27.817Z,83.83
2018-09-01T09:02:57.346Z,83.99
2018-09-01T09:05:26.898Z,83.40
2018-09-01T09:07:56.579Z,82.95
2018-09-01T09:10:26.062Z,82.69
2018-09-01T09:12:55.520Z,80.26
2018-09-01T09:15:25.039Z,79.43
2018-09-01T09:17:54.595Z,79.45
2018-09-01T09:20:24.582Z,80.39
2018-09-01T09:22:54.109Z,79.91
2018-09-01T09:25:23.854Z,78.96
2018-09-01T09:27:53.617Z,76.23
2018-09-01T09:30:23.269Z,76.64
2018-09-01T09:32:53.563Z,77.89
2018-09-01T09:35:23.017Z,77.15
2018-09-01T09:37:52.526Z,78.29
2018-09-01T09:40:22.163Z,77.00
2018-09-01T09:42:51.731Z,73.51
2018-09-01T09:45:21.760Z,74.38
2018-09-01T09:47:51.263Z,73.15
2018-09-01T09:50:20.821Z,74.55
2018-09-01T09:52:50.377Z,73.80
2018-09-01T09:55:19.945Z,72.97
2018-09-01T09:57:49.392Z,74.01
2018-09-01T10:00:24.130Z,72.90
2018-09-01T10:02:53.695Z,70.03
2018-09-01T10:05:23.187Z,69.32
2018-09-01T10:07:52.689Z,67.58
2018-09-01T10:10:22.191Z,68.04
2018-09-01T10:12:51.876Z,67.06
2018-09-01T10:15:21.420Z,66.29
2018-09-01T10:17:50.979Z,66.29
2018-09-01T10:20:20.602Z,66.47
2018-09-01T10:22:50.039Z,65.99
2018-09-01T10:25:19.517Z,66.72
2018-09-01T10:27:49.022Z,63.04
2018-09-01T10:30:18.508Z,63.22
2018-09-01T10:32:48.032Z,60.32
2018-09-01T10:35:17.641Z,59.35
2018-09-01T10:37:47.142Z,56.99
2018-09-01T10:40:16.722Z,57.51
2018-09-01T10:42:46.283Z,53.49
2018-09-01T10:45:15.686Z,54.71
2018-09-01T10:47:45.509Z,54.23
2018-09-01T10:50:14.997Z,55.40
2018-09-01T10:52:44.995Z,57.01
2018-09-01T10:55:14.450Z,58.64
2018-09-01T10:57:44.250Z,58.10
2018-09-01T11:00:13.917Z,57.75
2018-09-01T11:02:43.465Z,59.73
2018-09-01T11:05:13.482Z,57.75
2018-09-01T11:07:43.091Z,54.97
2018-09-01T11:10:12.748Z,55.28
2018-09-01T11:12:42.269Z,54.92
2018-09-01T11:15:11.837Z,54.14
2018-09-01T11:17:41.455Z,54.58
2018-09-01T11:20:11.148Z,55.58
2018-09-01T11:22:40.545Z,54.60
2018-09-01T11:25:10.011Z,52.61
2018-09-01T11:27:39.545Z,53.14
2018-09-01T11:30:10.976Z,53.28
2018-09-01T11:32:40.742Z,51.38
2018-09-01T11:35:10.534Z,53.10
2018-09-01T11:37:39.986Z,52.35
2018-09-01T11:40:09.564Z,52.64
2018-09-01T11:42:39.234Z,50.32
2018-09-01T11:45:08.675Z,50.85
2018-09-01T11:47:38.248Z,47.33
2018-09-01T11:50:07.818Z,46.39
2018-09-01T11:52:37.248Z,41.42
2018-09-01T11:55:07.557Z,40.90
2018-09-01T11:57:37.082Z,45.97
2018-09-01T12:00:06.984Z,46.20
2018-09-01T12:02:36.635Z,47.16
2018-09-01T12:05:06.281Z,48.21
2018-09-01T12:07:35.800Z,47.29
2018-09-01T12:10:06.173Z,46.10
2018-09-01T12:12:35.714Z,49.27
2018-09-01T12:15:05.644Z,47.64
2018-09-01T12:17:35.280Z,46.03
2018-09-01T12:20:04.812Z,46.08
2018-09-01T12:22:34.250Z,45.84
2018-09-01T12:25:03.949Z,46.15
2018-09-01T12:27:33.428Z,45.03
2018-09-01T12:30:03.008Z,42.82
2018-09-01T12:32:32.407Z,40.88
2018-09-01T12:35:01.825Z,38.36
2018-09-01T12:37:31.370Z,37.78
2018-09-01T12:40:00.857Z,36.42
2018-09-01T12:42:30.528Z,33.50
2018-09-01T12:45:00.067Z,33.29
2018-09-01T12:47:29.612Z,31.84
2018-09-01T12:49:59.209Z,29.43
2018-09-01T12:52:28.806Z,32.32
2018-09-01T12:54:58.422Z,32.10
2018-09-01T12:57:27.932Z,29.27
2018-09-01T12:59:57.444Z,29.55
2018-09-01T13:02:27.114Z,29.99
2018-09-01T13:04:56.711Z,31.50
2018-09-01T13:07:26.254Z,30.63
2018-09-01T13:09:55.779Z,29.51
2018-09-01T13:12:25.214Z,28.26
2018-09-01T13:14:54.769Z,27.56
2018-09-01T13:17:24.313Z,28.50
2018-09-01T13:19:53.862Z,27.30
2018-09-01T13:22:23.422Z,29.06
2018-09-01T13:24:52.979Z,30.12
2018-09-01T13:27:22.514Z,33.02
2018-09-01T13:29:51.951Z,33.53
2018-09-01T13:32:21.429Z,32.80
2018-09-01T13:34:50.979Z,30.97
2018-09-01T13:37:20.416Z,29.53
2018-09-01T13:39:49.981Z,28.97
2018-09-01T13:42:19.401Z,31.56
2018-09-01T13:44:48.907Z,30.91
2018-09-01T13:47:18.463Z,28.94
2018-09-01T13:49:47.957Z,27.33
2018-09-01T13:52:17.522Z,25.31
2018-09-01T13:54:47.597Z,26.42
2018-09-01T13:57:17.159Z,26.54
2018-09-01T13:59:46.624Z,26.03
2018-09-01T14:02:16.086Z,24.35
2018-09-01T14:04:45.910Z,24.82
2018-09-01T14:07:15.396Z,25.04
2018-09-01T14:09:44.905Z,25.82
2018-09-01T14:12:14.386Z,25.71
2018-09-01T14:14:43.998Z,24.58
2018-09-01T14:17:13.417Z,24.52
2018-09-01T14:19:42.948Z,25.71
2018-09-01T14:22:12.494Z,27.04
2018-09-01T14:24:42.068Z,27.59
2018-09-01T14:27:11.826Z,28.17
2018-09-01T14:29:41.421Z,29.13
2018-09-01T14:32:10.893Z,31.84
2018-09-01T14:34:40.418Z,29.53
2018-09-01T14:37:10.206Z,28.67
2018-09-01T14:39:39.691Z,27.13
2018-09-01T14:42:09.186Z,27.18
2018-09-01T14:44:38.744Z,29.94
2018-09-01T14:47:08.251Z,32.06
2018-09-01T14:49:37.995Z,33.89
2018-09-01T14:52:08.053Z,33.10
2018-09-01T14:54:37.609Z,31.47
2018-09-01T14:57:08.028Z,29.60
2018-09-01T14:59:37.542Z,29.13
2018-09-01T15:02:07.153Z,31.37
2018-09-01T15:04:36.665Z,34.79
2018-09-01T15:07:06.469Z,36.64
2018-09-01T15:09:36.029Z,39.35
2018-09-01T15:12:05.742Z,40.53
2018-09-01T15:14:35.938Z,41.26
2018-09-01T15:17:05.573Z,41.67
2018-09-01T15:19:35.031Z,42.72
2018-09-01T15:22:04.510Z,43.20
2018-09-01T15:24:33.923Z,40.93
2018-09-01T15:27:03.658Z,37.44
2018-09-01T15:29:33.271Z,34.40
2018-09-01T15:32:02.708Z,33.28
2018-09-01T15:34:32.551Z,34.52
2018-09-01T15:37:02.075Z,33.83
2018-09-01T15:39:31.795Z,34.36
2018-09-01T15:42:01.242Z,37.91
2018-09-01T15:44:30.872Z,37.92
2018-09-01T15:47:00.656Z,39.75
2018-09-01T15:49:30.103Z,40.32
2018-09-01T15:51:59.672Z,38.75
2018-09-01T15:54:29.372Z,36.12
2018-09-01T15:56:58.871Z,33.38
2018-09-01T15:59:28.302Z,31.37
2018-09-01T16:01:57.869Z,31.52
2018-09-01T16:04:27.336Z,31.55
2018-09-01T16:06:56.860Z,34.26
2018-09-01T16:09:26.537Z,32.37
2018-09-01T16:11:55.983Z,33.26
2018-09-01T16:14:25.457Z,33.41
2018-09-01T16:16:55.245Z,32.87
2018-09-01T16:19:24.777Z,33.46
2018-09-01T16:21:54.311Z,34.96
2018-09-01T16:24:23.966Z,37.62
2018-09-01T16:26:53.536Z,39.15
2018-09-01T16:29:23.257Z,38.89
2018-09-01T16:31:52.963Z,37.53
2018-09-01T16:34:22.505Z,35.90
2018-09-01T16:36:52.092Z,35.81
2018-09-01T16:39:21.599Z,34.15
2018-09-01T16:41:51.110Z,35.06
2018-09-01T16:44:20.608Z,35.51
2018-09-01T16:46:51.221Z,34.35
2018-09-01T16:49:20.783Z,35.25
2018-09-01T16:51:50.352Z,34.14
2018-09-01T16:54:19.976Z,33.47
2018-09-01T16:56:49.580Z,33.97
2018-09-01T16:59:19.065Z,34.77
2018-09-01T17:01:48.697Z,35.15
2018-09-01T17:04:18.272Z,37.24
2018-09-01T17:06:47.759Z,38.99
2018-09-01T17:09:17.277Z,38.99
2018-09-01T17:11:46.832Z,39.73
2018-09-01T17:14:16.290Z,40.18
2018-09-01T17:16:45.905Z,40.93
2018-09-01T17:19:15.342Z,41.81
2018-09-01T17:21:44.921Z,42.83
2018-09-01T17:24:14.368Z,43.08
2018-09-01T17:26:43.948Z,43.07
2018-09-01T17:29:13.447Z,44.26
2018-09-01T17:31:42.897Z,44.71
2018-09-01T17:34:12.841Z,44.72
2018-09-01T17:36:42.389Z,45.60
2018-09-01T17:39:12.952Z,45.65
2018-09-01T17:41:43.126Z,46.62
2018-09-01T17:44:12.746Z,47.60
2018-09-01T17:46:42.346Z,48.12
2018-09-01T17:49:11.910Z,47.50
2018-09-01T17:51:41.335Z,47.38
2018-09-01T17:54:10.906Z,48.05
2018-09-01T17:56:40.509Z,48.30
2018-09-01T17:59:10.251Z,48.80
2018-09-01T18:01:39.866Z,48.73
2018-09-01T18:04:09.381Z,49.76
2018-09-01T18:06:38.911Z,50.24
2018-09-01T18:09:08.420Z,50.03
2018-09-01T18:11:38.542Z,50.44
2018-09-01T18:14:08.012Z,50.65
2018-09-01T18:16:37.562Z,52.27
2018-09-01T18:19:07.190Z,51.78
2018-09-01T18:21:36.952Z,53.20
2018-09-01T18:24:06.536Z,53.05
2018-09-01T18:26:36.111Z,53.35
2018-09-01T18:29:05.874Z,54.14
2018-09-01T18:31:35.419Z,55.08
2018-09-01T18:34:05.101Z,55.10
2018-09-01T18:36:34.622Z,56.73
2018-09-01T18:39:06.550Z,57.16
2018-09-01T18:41:36.179Z,57.45
2018-09-01T18:44:05.889Z,58.41
2018-09-01T18:46:35.474Z,58.10
2018-09-01T18:49:06.282Z,58.50
2018-09-01T18:51:36.623Z,59.69
2018-09-01T18:54:06.922Z,59.66
2018-09-01T18:56:37.073Z,59.51
2018-09-01T18:59:07.052Z,60.41
2018-09-01T19:01:36.534Z,60.78
2018-09-01T19:04:06.033Z,61.71
2018-09-01T19:06:35.595Z,62.63
2018-09-01T19:09:06.766Z,62.65
2018-09-01T19:11:36.780Z,63.34
2018-09-01T19:14:06.518Z,63.64
2018-09-01T19:16:35.929Z,64.39
2018-09-01T19:19:05.491Z,64.89
2018-09-01T19:21:34.954Z,66.83
2018-09-01T19:24:04.411Z,67.46
2018-09-01T19:26:33.878Z,68.04
2018-09-01T19:29:03.482Z,68.03
2018-09-01T19:31:33.013Z,69.12
2018-09-01T19:34:02.499Z,68.64
2018-09-01T19:36:31.983Z,69.98
2018-09-01T19:39:01.492Z,69.70
2018-09-01T19:41:30.926Z,69.52
2018-09-01T19:44:00.354Z,70.57
2018-09-01T19:46:29.857Z,70.76
2018-09-01T19:48:59.306Z,71.06
2018-09-01T19:51:28.815Z,71.24
2018-09-01T19:53:58.291Z,70.91
2018-09-01T19:56:27.699Z,71.97
2018-09-01T19:58:57.217Z,72.26
2018-09-01T20:01:26.692Z,72.85
2018-09-01T20:03:56.525Z,73.36
2018-09-01T20:06:26.002Z,74.82
2018-09-01T20:08:55.511Z,76.13
2018-09-01T20:11:24.980Z,75.34
2018-09-01T20:13:54.490Z,74.94
2018-09-01T20:16:23.945Z,75.65
2018-09-01T20:18:53.385Z,75.56
2018-09-01T20:21:22.804Z,74.17
2018-09-01T20:23:52.719Z,74.76
2018-09-01T20:26:23.054Z,75.53
2018-09-01T20:28:52.569Z,75.83
2018-09-01T20:31:22.170Z,75.31
2018-09-01T20:33:51.688Z,75.49
2018-09-01T20:36:22.626Z,76.59
2018-09-01T20:38:52.136Z,76.81
2018-09-01T20:41:22.926Z,77.98
2018-09-01T20:43:52.680Z,78.12
2018-09-01T20:46:22.253Z,79.65
2018-09-01T20:48:52.562Z,79.74
2018-09-01T20:51:22.060Z,79.24
2018-09-01T20:53:51.572Z,79.86
2018-09-01T20:56:21.118Z,81.10
2018-09-01T20:58:50.599Z,79.74
2018-09-01T21:01:20.446Z,80.59
2018-09-01T21:03:50.002Z,80.45
2018-09-01T21:06:19.563Z,80.37
2018-09-01T21:08:49.018Z,80.94
2018-09-01T21:11:18.940Z,80.43
2018-09-01T21:13:48.425Z,80.39
2018-09-01T21:16:17.985Z,80.38
2018-09-01T21:18:47.433Z,79.67
2018-09-01T21:21:16.842Z,79.99
2018-09-01T21:23:46.454Z,79.46
2018-09-01T21:26:15.894Z,79.77
2018-09-01T21:28:45.320Z,79.42
2018-09-01T21:31:15.752Z,80.56
2018-09-01T21:33:45.182Z,80.24
2018-09-01T21:36:14.686Z,79.17
2018-09-01T21:38:44.219Z,79.67
2018-09-01T21:41:13.669Z,80.55
2018-09-01T21:43:44.768Z,79.80
2018-09-01T21:46:16.351Z,80.65
2018-09-01T21:48:46.250Z,80.83
2018-09-01T21:51:19.911Z,81.96
2018-09-01T21:53:49.438Z,84.12
2018-09-01T21:56:20.174Z,84.58
2018-09-01T21:58:49.899Z,83.75
2018-09-01T22:01:24.949Z,82.93
2018-09-01T22:03:54.442Z,83.06
2018-09-01T22:06:23.919Z,83.12
2018-09-01T22:08:53.364Z,83.86
2018-09-01T22:11:29.315Z,83.86
2018-09-01T22:13:58.819Z,84.24
2018-09-01T22:16:28.421Z,84.10
2018-09-01T22:18:57.914Z,84.52
2018-09-01T22:21:27.377Z,83.93
2018-09-01T22:23:57.221Z,84.53
2018-09-01T22:26:28.880Z,85.47
2018-09-01T22:28:58.429Z,85.85
2018-09-01T22:31:28.013Z,86.50
2018-09-01T22:33:57.324Z,86.53
2018-09-01T22:36:28.014Z,87.19
2018-09-01T22:38:57.506Z,86.19
2018-09-01T22:41:27.515Z,85.99
2018-09-01T22:43:57.676Z,86.85
2018-09-01T22:46:27.149Z,85.97
2018-09-01T22:48:57.609Z,86.25
2018-09-01T22:51:27.091Z,86.35
2018-09-01T22:53:56.539Z,86.30
2018-09-01T22:56:26.001Z,85.78
2018-09-01T22:58:56.439Z,85.44
2018-09-01T23:01:26.192Z,86.61
2018-09-01T23:03:58.884Z,86.27
2018-09-01T23:06:28.624Z,86.37
2018-09-01T23:08:59.191Z,86.71
2018-09-01T23:11:29.164Z,85.95
2018-09-01T23:13:58.651Z,87.06
2018-09-01T23:16:31.767Z,87.75
2018-09-01T23:19:01.765Z,87.55
2018-09-01T23:21:32.137Z,88.03
2018-09-01T23:24:01.769Z,88.94
2018-09-01T23:26:31.916Z,88.51
2018-09-01T23:29:01.957Z,88.12
2018-09-01T23:31:31.467Z,88.19
2018-09-01T23:34:01.217Z,89.08
2018-09-01T23:36:30.834Z,88.17
2018-09-01T23:39:00.257Z,88.46
2018-09-01T23:41:29.744Z,87.69
2018-09-01T23:43:59.145Z,87.53
2018-09-01T23:46:29.597Z,87.34
2018-09-01T23:49:00.090Z,87.32
2018-09-01T23:51:29.511Z,87.62
2018-09-01T23:53:58.961Z,88.02
2018-09-01T23:56:28.749Z,87.61
2018-09-01T23:58:58.548Z,87.30
